sensor_id;sensor_type;location;lat;lon;timestamp;pressure;altitude;pressure_sealevel;temperature;humidity
49943;BME280;36011;53.362;58.948;2023-02-28T00:01:30;96322.47;;;-0.29;68.03
49943;BME280;36011;53.362;58.948;2023-02-28T00:04:35;96320.91;;;-0.06;67.55
49943;BME280;36011;53.362;58.948;2023-02-28T00:07:39;96329.16;;;0.05;66.51
49943;BME280;36011;53.362;58.948;2023-02-28T00:10:43;96314.09;;;0.18;65.78
49943;BME280;36011;53.362;58.948;2023-02-28T00:13:50;96301.91;;;0.21;65.85
49943;BME280;36011;53.362;58.948;2023-02-28T00:16:55;96308.13;;;0.16;66.23
49943;BME280;36011;53.362;58.948;2023-02-28T00:19:59;96304.13;;;0.32;64.88
49943;BME280;36011;53.362;58.948;2023-02-28T00:23:10;96293.53;;;0.13;66.02
49943;BME280;36011;53.362;58.948;2023-02-28T00:26:16;96309.47;;;0.28;65.14
49943;BME280;36011;53.362;58.948;2023-02-28T00:29:20;96280.03;;;0.30;65.16
49943;BME280;36011;53.362;58.948;2023-02-28T00:32:24;96279.25;;;0.28;65.33
49943;BME280;36011;53.362;58.948;2023-02-28T00:35:32;96281.66;;;0.34;65.17
49943;BME280;36011;53.362;58.948;2023-02-28T00:38:36;96268.00;;;0.29;64.74
49943;BME280;36011;53.362;58.948;2023-02-28T00:41:46;96254.28;;;0.27;65.35
49943;BME280;36011;53.362;58.948;2023-02-28T00:44:47;96271.41;;;0.31;65.38
49943;BME280;36011;53.362;58.948;2023-02-28T00:47:49;96248.03;;;0.33;65.85
49943;BME280;36011;53.362;58.948;2023-02-28T00:50:53;96252.28;;;0.35;64.98
49943;BME280;36011;53.362;58.948;2023-02-28T00:53:54;96257.88;;;0.23;65.13
49943;BME280;36011;53.362;58.948;2023-02-28T00:56:59;96246.88;;;0.16;65.47
49943;BME280;36011;53.362;58.948;2023-02-28T01:00:04;96244.47;;;0.12;65.84
49943;BME280;36011;53.362;58.948;2023-02-28T01:03:08;96256.28;;;0.19;65.28
49943;BME280;36011;53.362;58.948;2023-02-28T01:06:12;96248.03;;;0.08;66.01
49943;BME280;36011;53.362;58.948;2023-02-28T01:09:15;96265.81;;;0.17;65.37
49943;BME280;36011;53.362;58.948;2023-02-28T01:12:16;96243.28;;;-0.05;65.78
49943;BME280;36011;53.362;58.948;2023-02-28T01:15:22;96254.97;;;0.06;66.22
49943;BME280;36011;53.362;58.948;2023-02-28T01:18:24;96248.72;;;0.13;65.82
49943;BME280;36011;53.362;58.948;2023-02-28T01:21:28;96252.59;;;0.26;66.17
49943;BME280;36011;53.362;58.948;2023-02-28T01:24:33;96235.78;;;0.13;65.84
49943;BME280;36011;53.362;58.948;2023-02-28T01:27:36;96246.44;;;0.04;66.13
49943;BME280;36011;53.362;58.948;2023-02-28T01:30:46;96232.94;;;0.20;65.47
49943;BME280;36011;53.362;58.948;2023-02-28T01:33:51;96247.94;;;0.11;65.93
49943;BME280;36011;53.362;58.948;2023-02-28T01:36:55;96235.78;;;0.13;65.85
49943;BME280;36011;53.362;58.948;2023-02-28T01:39:59;96226.19;;;0.16;66.05
49943;BME280;36011;53.362;58.948;2023-02-28T01:43:09;96234.63;;;0.21;65.69
49943;BME280;36011;53.362;58.948;2023-02-28T01:46:22;96230.41;;;0.19;65.66
49943;BME280;36011;53.362;58.948;2023-02-28T01:49:27;96219.22;;;0.18;65.81
49943;BME280;36011;53.362;58.948;2023-02-28T01:52:28;96227.34;;;0.08;66.35
49943;BME280;36011;53.362;58.948;2023-02-28T01:55:33;96226.63;;;0.03;66.08
49943;BME280;36011;53.362;58.948;2023-02-28T01:58:36;96224.97;;;0.02;65.97
49943;BME280;36011;53.362;58.948;2023-02-28T02:01:38;96229.13;;;0.06;66.32
49943;BME280;36011;53.362;58.948;2023-02-28T02:04:45;96227.44;;;0.05;66.15
49943;BME280;36011;53.362;58.948;2023-02-28T02:08:02;96227.59;;;0.25;65.64
49943;BME280;36011;53.362;58.948;2023-02-28T02:11:12;96231.34;;;0.16;66.21
49943;BME280;36011;53.362;58.948;2023-02-28T02:14:51;96251.59;;;0.30;65.70
49943;BME280;36011;53.362;58.948;2023-02-28T02:18:05;96216.97;;;0.34;65.44
49943;BME280;36011;53.362;58.948;2023-02-28T02:41:12;96218.31;;;0.44;65.04
49943;BME280;36011;53.362;58.948;2023-02-28T02:47:44;96225.56;;;0.58;64.74
49943;BME280;36011;53.362;58.948;2023-02-28T02:50:55;96238.13;;;0.46;65.08
49943;BME280;36011;53.362;58.948;2023-02-28T02:54:17;96218.38;;;0.43;65.52
49943;BME280;36011;53.362;58.948;2023-02-28T02:57:36;96219.22;;;0.43;65.57
49943;BME280;36011;53.362;58.948;2023-02-28T03:00:48;96220.28;;;0.38;65.04
49943;BME280;36011;53.362;58.948;2023-02-28T03:04:03;96222.94;;;0.60;63.97
49943;BME280;36011;53.362;58.948;2023-02-28T03:07:09;96220.25;;;0.63;64.73
49943;BME280;36011;53.362;58.948;2023-02-28T03:10:49;96215.69;;;0.70;64.05
49943;BME280;36011;53.362;58.948;2023-02-28T03:18:22;96211.34;;;0.70;64.46
49943;BME280;36011;53.362;58.948;2023-02-28T03:21:23;96192.66;;;0.62;64.50
49943;BME280;36011;53.362;58.948;2023-02-28T03:31:27;96183.53;;;0.75;63.94
49943;BME280;36011;53.362;58.948;2023-02-28T03:34:38;96179.50;;;0.68;63.94
49943;BME280;36011;53.362;58.948;2023-02-28T03:37:46;96187.47;;;0.62;64.55
49943;BME280;36011;53.362;58.948;2023-02-28T03:40:56;96185.56;;;0.67;64.25
49943;BME280;36011;53.362;58.948;2023-02-28T03:44:09;96176.00;;;0.69;64.37
49943;BME280;36011;53.362;58.948;2023-02-28T03:48:11;96202.28;;;0.82;63.77
49943;BME280;36011;53.362;58.948;2023-02-28T03:50:52;96196.59;;;0.72;63.95
49943;BME280;36011;53.362;58.948;2023-02-28T03:54:06;96204.97;;;0.79;64.12
49943;BME280;36011;53.362;58.948;2023-02-28T03:57:37;96212.38;;;0.66;65.02
49943;BME280;36011;53.362;58.948;2023-02-28T04:01:11;96206.34;;;0.89;64.85
49943;BME280;36011;53.362;58.948;2023-02-28T04:04:19;96206.19;;;0.94;63.81
49943;BME280;36011;53.362;58.948;2023-02-28T04:07:23;96200.56;;;0.82;64.19
49943;BME280;36011;53.362;58.948;2023-02-28T04:10:28;96215.50;;;0.98;64.21
49943;BME280;36011;53.362;58.948;2023-02-28T04:13:32;96204.34;;;1.19;63.56
49943;BME280;36011;53.362;58.948;2023-02-28T04:16:38;96206.28;;;1.36;62.08
49943;BME280;36011;53.362;58.948;2023-02-28T04:19:43;96209.34;;;1.46;62.04
49943;BME280;36011;53.362;58.948;2023-02-28T04:22:48;96203.13;;;1.50;61.29
49943;BME280;36011;53.362;58.948;2023-02-28T04:25:56;96208.81;;;1.38;61.99
49943;BME280;36011;53.362;58.948;2023-02-28T04:29:02;96202.22;;;1.51;61.80
49943;BME280;36011;53.362;58.948;2023-02-28T04:32:08;96192.41;;;1.59;61.06
49943;BME280;36011;53.362;58.948;2023-02-28T04:35:12;96208.44;;;1.47;62.06
49943;BME280;36011;53.362;58.948;2023-02-28T04:38:17;96198.22;;;1.64;61.00
49943;BME280;36011;53.362;58.948;2023-02-28T04:41:22;96180.72;;;1.69;60.95
49943;BME280;36011;53.362;58.948;2023-02-28T04:44:26;96186.84;;;1.68;61.13
49943;BME280;36011;53.362;58.948;2023-02-28T04:47:31;96174.44;;;1.75;60.93
49943;BME280;36011;53.362;58.948;2023-02-28T04:50:36;96174.00;;;1.86;60.63
49943;BME280;36011;53.362;58.948;2023-02-28T04:53:42;96166.75;;;1.94;60.38
49943;BME280;36011;53.362;58.948;2023-02-28T04:56:47;96169.47;;;1.91;60.45
49943;BME280;36011;53.362;58.948;2023-02-28T04:59:53;96157.56;;;2.07;60.07
49943;BME280;36011;53.362;58.948;2023-02-28T05:02:58;96155.22;;;2.40;58.55
49943;BME280;36011;53.362;58.948;2023-02-28T05:06:02;96141.88;;;2.29;58.78
49943;BME280;36011;53.362;58.948;2023-02-28T05:09:07;96146.13;;;2.51;57.92
49943;BME280;36011;53.362;58.948;2023-02-28T05:12:12;96157.31;;;2.53;57.99
49943;BME280;36011;53.362;58.948;2023-02-28T05:15:17;96168.66;;;2.50;57.51
49943;BME280;36011;53.362;58.948;2023-02-28T05:18:23;96162.72;;;2.28;57.91
49943;BME280;36011;53.362;58.948;2023-02-28T05:21:48;96172.59;;;2.19;58.71
49943;BME280;36011;53.362;58.948;2023-02-28T05:24:53;96165.97;;;2.12;58.04
49943;BME280;36011;53.362;58.948;2023-02-28T05:27:57;96182.97;;;1.99;58.13
49943;BME280;36011;53.362;58.948;2023-02-28T05:31:02;96185.09;;;1.89;58.65
49943;BME280;36011;53.362;58.948;2023-02-28T05:34:07;96165.84;;;1.95;58.58
49943;BME280;36011;53.362;58.948;2023-02-28T05:37:15;96168.44;;;1.95;57.87
49943;BME280;36011;53.362;58.948;2023-02-28T05:40:19;96183.09;;;2.16;57.93
49943;BME280;36011;53.362;58.948;2023-02-28T05:43:23;96181.19;;;2.40;56.63
49943;BME280;36011;53.362;58.948;2023-02-28T05:46:27;96178.00;;;2.54;55.98
49943;BME280;36011;53.362;58.948;2023-02-28T05:49:33;96179.63;;;2.57;55.96
49943;BME280;36011;53.362;58.948;2023-02-28T05:52:35;96167.09;;;2.66;55.41
49943;BME280;36011;53.362;58.948;2023-02-28T05:55:40;96173.94;;;2.67;54.85
49943;BME280;36011;53.362;58.948;2023-02-28T05:58:44;96160.00;;;2.89;54.93
49943;BME280;36011;53.362;58.948;2023-02-28T06:01:51;96147.59;;;3.32;54.43
49943;BME280;36011;53.362;58.948;2023-02-28T06:04:57;96143.03;;;3.54;54.05
49943;BME280;36011;53.362;58.948;2023-02-28T06:08:02;96134.16;;;3.93;52.89
49943;BME280;36011;53.362;58.948;2023-02-28T06:11:07;96136.06;;;4.07;52.26
49943;BME280;36011;53.362;58.948;2023-02-28T06:14:19;96123.22;;;4.04;51.97
49943;BME280;36011;53.362;58.948;2023-02-28T06:17:24;96115.06;;;3.77;52.06
49943;BME280;36011;53.362;58.948;2023-02-28T06:20:28;96095.59;;;3.32;53.02
49943;BME280;36011;53.362;58.948;2023-02-28T06:23:33;96101.19;;;4.60;52.12
49943;BME280;36011;53.362;58.948;2023-02-28T06:26:37;96098.53;;;6.59;47.15
49943;BME280;36011;53.362;58.948;2023-02-28T06:29:38;96104.84;;;6.97;45.12
49943;BME280;36011;53.362;58.948;2023-02-28T06:32:47;96091.81;;;6.55;45.33
49943;BME280;36011;53.362;58.948;2023-02-28T06:35:55;96103.66;;;6.03;46.50
49943;BME280;36011;53.362;58.948;2023-02-28T06:38:56;96109.66;;;5.89;46.69
49943;BME280;36011;53.362;58.948;2023-02-28T06:41:57;96103.72;;;5.25;47.93
49943;BME280;36011;53.362;58.948;2023-02-28T06:45:02;96116.34;;;5.33;48.21
49943;BME280;36011;53.362;58.948;2023-02-28T06:48:09;96125.94;;;5.32;48.63
49943;BME280;36011;53.362;58.948;2023-02-28T06:51:16;96121.56;;;5.33;48.55
49943;BME280;36011;53.362;58.948;2023-02-28T06:54:18;96136.53;;;4.82;50.19
49943;BME280;36011;53.362;58.948;2023-02-28T06:57:31;96125.88;;;4.20;52.07
49943;BME280;36011;53.362;58.948;2023-02-28T07:00:33;96115.94;;;4.11;52.45
49943;BME280;36011;53.362;58.948;2023-02-28T07:03:35;96130.03;;;3.89;53.28
49943;BME280;36011;53.362;58.948;2023-02-28T07:06:38;96125.75;;;3.71;53.88
49943;BME280;36011;53.362;58.948;2023-02-28T07:09:40;96129.09;;;3.38;55.06
49943;BME280;36011;53.362;58.948;2023-02-28T07:12:43;96132.88;;;3.31;55.52
49943;BME280;36011;53.362;58.948;2023-02-28T07:18:55;96121.19;;;3.40;54.79
49943;BME280;36011;53.362;58.948;2023-02-28T07:21:57;96141.63;;;3.30;54.71
49943;BME280;36011;53.362;58.948;2023-02-28T07:25:01;96142.94;;;3.20;55.00
49943;BME280;36011;53.362;58.948;2023-02-28T07:28:03;96155.00;;;3.03;55.90
49943;BME280;36011;53.362;58.948;2023-02-28T07:31:08;96140.78;;;3.10;54.98
49943;BME280;36011;53.362;58.948;2023-02-28T07:34:16;96142.06;;;3.02;55.22
49943;BME280;36011;53.362;58.948;2023-02-28T07:37:21;96151.84;;;2.97;55.40
49943;BME280;36011;53.362;58.948;2023-02-28T07:40:26;96134.47;;;2.97;55.61
49943;BME280;36011;53.362;58.948;2023-02-28T07:43:27;96134.56;;;2.96;55.63
49943;BME280;36011;53.362;58.948;2023-02-28T07:46:31;96129.63;;;3.08;55.40
49943;BME280;36011;53.362;58.948;2023-02-28T07:49:36;96112.69;;;3.19;55.46
49943;BME280;36011;53.362;58.948;2023-02-28T07:52:41;96106.88;;;3.31;54.23
49943;BME280;36011;53.362;58.948;2023-02-28T07:55:46;96098.81;;;3.37;53.94
49943;BME280;36011;53.362;58.948;2023-02-28T07:58:48;96103.78;;;3.59;53.49
49943;BME280;36011;53.362;58.948;2023-02-28T08:01:52;96108.38;;;3.89;52.83
49943;BME280;36011;53.362;58.948;2023-02-28T08:04:53;96097.28;;;3.85;52.36
49943;BME280;36011;53.362;58.948;2023-02-28T08:07:57;96100.19;;;3.79;52.38
49943;BME280;36011;53.362;58.948;2023-02-28T08:11:00;96103.94;;;3.73;52.63
49943;BME280;36011;53.362;58.948;2023-02-28T08:14:02;96100.97;;;3.81;52.58
49943;BME280;36011;53.362;58.948;2023-02-28T08:17:06;96113.03;;;3.82;52.01
49943;BME280;36011;53.362;58.948;2023-02-28T08:20:10;96105.22;;;3.65;52.00
49943;BME280;36011;53.362;58.948;2023-02-28T08:23:14;96095.91;;;3.60;52.25
49943;BME280;36011;53.362;58.948;2023-02-28T08:26:17;96101.28;;;3.57;52.23
49943;BME280;36011;53.362;58.948;2023-02-28T08:29:18;96098.81;;;3.54;52.43
49943;BME280;36011;53.362;58.948;2023-02-28T08:32:22;96104.41;;;3.64;52.40
49943;BME280;36011;53.362;58.948;2023-02-28T08:35:24;96098.97;;;3.86;52.27
49943;BME280;36011;53.362;58.948;2023-02-28T08:38:25;96101.44;;;4.22;50.87
49943;BME280;36011;53.362;58.948;2023-02-28T08:41:29;96084.66;;;4.28;50.31
49943;BME280;36011;53.362;58.948;2023-02-28T08:44:36;96064.16;;;4.22;50.58
49943;BME280;36011;53.362;58.948;2023-02-28T08:47:39;96044.16;;;4.38;50.14
49943;BME280;36011;53.362;58.948;2023-02-28T08:50:43;96049.75;;;4.64;49.00
49943;BME280;36011;53.362;58.948;2023-02-28T08:53:48;96030.88;;;5.22;47.26
49943;BME280;36011;53.362;58.948;2023-02-28T08:56:50;96040.16;;;5.42;45.91
49943;BME280;36011;53.362;58.948;2023-02-28T08:59:57;96019.66;;;4.90;46.83
49943;BME280;36011;53.362;58.948;2023-02-28T09:03:01;96047.91;;;4.66;47.57
49943;BME280;36011;53.362;58.948;2023-02-28T09:06:02;96056.22;;;4.57;47.67
49943;BME280;36011;53.362;58.948;2023-02-28T09:09:09;96069.75;;;4.63;47.26
49943;BME280;36011;53.362;58.948;2023-02-28T09:12:10;96073.63;;;4.72;47.68
49943;BME280;36011;53.362;58.948;2023-02-28T09:15:17;96088.44;;;4.87;46.17
49943;BME280;36011;53.362;58.948;2023-02-28T09:18:23;96098.78;;;4.73;47.11
49943;BME280;36011;53.362;58.948;2023-02-28T09:21:27;96058.25;;;5.29;45.17
49943;BME280;36011;53.362;58.948;2023-02-28T09:24:31;96037.97;;;6.38;43.46
49943;BME280;36011;53.362;58.948;2023-02-28T09:27:37;96017.78;;;9.26;37.60
49943;BME280;36011;53.362;58.948;2023-02-28T09:30:39;96032.44;;;12.59;31.63
49943;BME280;36011;53.362;58.948;2023-02-28T09:33:43;96025.56;;;15.27;28.18
49943;BME280;36011;53.362;58.948;2023-02-28T09:36:47;96031.28;;;16.30;25.40
49943;BME280;36011;53.362;58.948;2023-02-28T09:39:51;96039.94;;;19.15;24.72
49943;BME280;36011;53.362;58.948;2023-02-28T09:42:54;96033.09;;;17.83;23.75
49943;BME280;36011;53.362;58.948;2023-02-28T09:49:28;96011.13;;;10.71;31.09
49943;BME280;36011;53.362;58.948;2023-02-28T09:52:36;95990.56;;;8.42;35.04
49943;BME280;36011;53.362;58.948;2023-02-28T09:55:47;95972.91;;;7.29;36.92
49943;BME280;36011;53.362;58.948;2023-02-28T10:05:39;95969.56;;;14.67;26.91
49943;BME280;36011;53.362;58.948;2023-02-28T10:12:25;96006.72;;;16.54;24.32
49943;BME280;36011;53.362;58.948;2023-02-28T10:15:29;96012.50;;;18.10;24.08
49943;BME280;36011;53.362;58.948;2023-02-28T10:18:42;96021.22;;;18.84;22.25
49943;BME280;36011;53.362;58.948;2023-02-28T10:22:00;96019.84;;;19.59;21.98
49943;BME280;36011;53.362;58.948;2023-02-28T10:25:17;96037.03;;;20.71;20.35
49943;BME280;36011;53.362;58.948;2023-02-28T10:28:24;96029.75;;;20.27;20.03
49943;BME280;36011;53.362;58.948;2023-02-28T10:31:25;96030.44;;;20.21;20.76
49943;BME280;36011;53.362;58.948;2023-02-28T10:34:29;96011.22;;;20.26;20.18
49943;BME280;36011;53.362;58.948;2023-02-28T10:37:32;96011.72;;;20.06;19.70
49943;BME280;36011;53.362;58.948;2023-02-28T10:40:41;95991.75;;;17.14;21.98
49943;BME280;36011;53.362;58.948;2023-02-28T10:43:45;95997.00;;;16.37;22.88
49943;BME280;36011;53.362;58.948;2023-02-28T10:46:51;95997.31;;;16.08;23.62
49943;BME280;36011;53.362;58.948;2023-02-28T10:49:53;95999.91;;;16.26;22.89
49943;BME280;36011;53.362;58.948;2023-02-28T10:53:07;95999.41;;;16.48;23.03
49943;BME280;36011;53.362;58.948;2023-02-28T11:02:31;95986.91;;;14.79;24.70
49943;BME280;36011;53.362;58.948;2023-02-28T11:05:35;95993.34;;;15.86;23.50
49943;BME280;36011;53.362;58.948;2023-02-28T11:08:48;95983.94;;;15.74;23.60
49943;BME280;36011;53.362;58.948;2023-02-28T11:11:52;95980.28;;;15.57;23.77
49943;BME280;36011;53.362;58.948;2023-02-28T11:15:04;95984.19;;;14.99;24.61
49943;BME280;36011;53.362;58.948;2023-02-28T11:21:52;95963.59;;;14.93;24.72
49943;BME280;36011;53.362;58.948;2023-02-28T11:25:02;95968.16;;;15.18;24.46
49943;BME280;36011;53.362;58.948;2023-02-28T11:28:06;95971.72;;;14.81;24.49
49943;BME280;36011;53.362;58.948;2023-02-28T11:31:26;95969.81;;;13.80;25.56
49943;BME280;36011;53.362;58.948;2023-02-28T11:34:34;95967.06;;;13.42;26.00
49943;BME280;36011;53.362;58.948;2023-02-28T11:37:38;95969.53;;;13.44;26.12
49943;BME280;36011;53.362;58.948;2023-02-28T11:44:28;95969.22;;;13.18;25.85
49943;BME280;36011;53.362;58.948;2023-02-28T11:57:35;95956.19;;;7.95;32.99
49943;BME280;36011;53.362;58.948;2023-02-28T12:00:57;95937.50;;;6.56;35.44
49943;BME280;36011;53.362;58.948;2023-02-28T12:04:25;95931.22;;;5.31;37.74
49943;BME280;36011;53.362;58.948;2023-02-28T12:11:00;95921.69;;;4.24;40.24
49943;BME280;36011;53.362;58.948;2023-02-28T12:20:30;95926.31;;;3.03;42.59
49943;BME280;36011;53.362;58.948;2023-02-28T12:26:53;95909.75;;;1.78;45.80
49943;BME280;36011;53.362;58.948;2023-02-28T12:30:27;95912.53;;;1.35;46.54
49943;BME280;36011;53.362;58.948;2023-02-28T12:33:31;95904.38;;;1.24;46.48
49943;BME280;36011;53.362;58.948;2023-02-28T12:36:36;95909.00;;;1.57;46.45
49943;BME280;36011;53.362;58.948;2023-02-28T12:39:44;95899.34;;;1.79;46.42
49943;BME280;36011;53.362;58.948;2023-02-28T12:42:56;95892.72;;;2.10;45.84
49943;BME280;36011;53.362;58.948;2023-02-28T12:46:11;95895.97;;;3.86;42.34
49943;BME280;36011;53.362;58.948;2023-02-28T12:49:25;95883.88;;;4.48;39.97
49943;BME280;36011;53.362;58.948;2023-02-28T12:59:22;95857.69;;;2.01;44.68
49943;BME280;36011;53.362;58.948;2023-02-28T13:12:17;95846.56;;;-0.01;49.27
49943;BME280;36011;53.362;58.948;2023-02-28T13:15:26;95843.09;;;-0.21;49.66
49943;BME280;36011;53.362;58.948;2023-02-28T13:18:44;95849.66;;;-0.58;50.85
49943;BME280;36011;53.362;58.948;2023-02-28T13:21:49;95848.28;;;-0.91;51.69
49943;BME280;36011;53.362;58.948;2023-02-28T13:24:54;95859.94;;;-0.80;51.72
49943;BME280;36011;53.362;58.948;2023-02-28T13:28:00;95854.22;;;-1.14;52.86
49943;BME280;36011;53.362;58.948;2023-02-28T13:31:10;95854.50;;;-1.46;53.85
49943;BME280;36011;53.362;58.948;2023-02-28T13:34:15;95845.47;;;-1.58;54.71
49943;BME280;36011;53.362;58.948;2023-02-28T13:40:34;95841.81;;;-1.77;55.62
49943;BME280;36011;53.362;58.948;2023-02-28T14:06:52;95821.75;;;-2.79;57.88
49943;BME280;36011;53.362;58.948;2023-02-28T14:10:07;95820.50;;;-2.95;58.25
49943;BME280;36011;53.362;58.948;2023-02-28T14:16:48;95821.59;;;-3.04;58.47
49943;BME280;36011;53.362;58.948;2023-02-28T14:19:53;95832.19;;;-3.14;58.79
49943;BME280;36011;53.362;58.948;2023-02-28T14:23:20;95828.13;;;-3.22;58.91
49943;BME280;36011;53.362;58.948;2023-02-28T14:26:33;95824.25;;;-3.05;58.80
49943;BME280;36011;53.362;58.948;2023-02-28T14:36:48;95830.16;;;-3.33;59.59
49943;BME280;36011;53.362;58.948;2023-02-28T14:39:43;95833.63;;;-3.34;59.63
49943;BME280;36011;53.362;58.948;2023-02-28T14:42:55;95837.13;;;-3.38;59.88
49943;BME280;36011;53.362;58.948;2023-02-28T14:46:02;95833.84;;;-3.43;59.95
49943;BME280;36011;53.362;58.948;2023-02-28T14:49:12;95833.25;;;-3.53;60.35
49943;BME280;36011;53.362;58.948;2023-02-28T14:52:22;95828.44;;;-3.65;60.62
49943;BME280;36011;53.362;58.948;2023-02-28T14:55:28;95813.75;;;-3.62;60.66
49943;BME280;36011;53.362;58.948;2023-02-28T14:58:36;95818.81;;;-3.58;61.04
49943;BME280;36011;53.362;58.948;2023-02-28T15:01:40;95802.75;;;-3.67;61.14
49943;BME280;36011;53.362;58.948;2023-02-28T15:04:45;95800.34;;;-3.73;61.47
49943;BME280;36011;53.362;58.948;2023-02-28T15:11:18;95804.03;;;-3.83;61.63
49943;BME280;36011;53.362;58.948;2023-02-28T15:14:22;95791.09;;;-3.80;61.38
49943;BME280;36011;53.362;58.948;2023-02-28T15:17:26;95797.13;;;-3.81;61.91
49943;BME280;36011;53.362;58.948;2023-02-28T15:20:28;95783.56;;;-3.86;61.79
49943;BME280;36011;53.362;58.948;2023-02-28T15:23:32;95785.75;;;-3.71;61.80
49943;BME280;36011;53.362;58.948;2023-02-28T15:26:40;95788.06;;;-3.62;61.43
49943;BME280;36011;53.362;58.948;2023-02-28T15:30:05;95786.25;;;-3.59;60.89
49943;BME280;36011;53.362;58.948;2023-02-28T15:33:24;95784.09;;;-3.73;60.93
49943;BME280;36011;53.362;58.948;2023-02-28T15:36:29;95784.22;;;-3.79;61.38
49943;BME280;36011;53.362;58.948;2023-02-28T15:39:42;95775.31;;;-3.66;60.93
49943;BME280;36011;53.362;58.948;2023-02-28T15:43:13;95769.59;;;-3.76;61.26
49943;BME280;36011;53.362;58.948;2023-02-28T15:46:19;95776.31;;;-3.72;61.33
49943;BME280;36011;53.362;58.948;2023-02-28T15:49:21;95776.22;;;-3.69;61.11
49943;BME280;36011;53.362;58.948;2023-02-28T15:52:38;95762.75;;;-3.77;61.44
49943;BME280;36011;53.362;58.948;2023-02-28T15:55:42;95750.25;;;-3.91;61.93
49943;BME280;36011;53.362;58.948;2023-02-28T15:58:43;95725.34;;;-3.87;62.10
49943;BME280;36011;53.362;58.948;2023-02-28T16:02:01;95742.25;;;-3.80;62.72
49943;BME280;36011;53.362;58.948;2023-02-28T16:08:35;95741.03;;;-3.65;62.68
49943;BME280;36011;53.362;58.948;2023-02-28T16:11:40;95741.34;;;-3.46;62.46
49943;BME280;36011;53.362;58.948;2023-02-28T16:14:47;95745.69;;;-3.48;62.45
49943;BME280;36011;53.362;58.948;2023-02-28T16:17:54;95736.44;;;-3.24;61.87
49943;BME280;36011;53.362;58.948;2023-02-28T16:20:56;95737.47;;;-3.30;62.13
49943;BME280;36011;53.362;58.948;2023-02-28T16:23:59;95728.44;;;-3.15;61.63
49943;BME280;36011;53.362;58.948;2023-02-28T16:27:06;95726.59;;;-3.11;61.39
49943;BME280;36011;53.362;58.948;2023-02-28T16:30:19;95705.34;;;-3.17;61.72
49943;BME280;36011;53.362;58.948;2023-02-28T16:33:23;95711.25;;;-3.13;61.54
49943;BME280;36011;53.362;58.948;2023-02-28T16:36:28;95719.06;;;-3.18;61.53
49943;BME280;36011;53.362;58.948;2023-02-28T16:39:30;95711.91;;;-3.36;61.84
49943;BME280;36011;53.362;58.948;2023-02-28T16:42:31;95717.13;;;-3.09;61.60
49943;BME280;36011;53.362;58.948;2023-02-28T16:45:33;95711.34;;;-3.18;61.48
49943;BME280;36011;53.362;58.948;2023-02-28T16:48:37;95700.97;;;-3.14;61.72
49943;BME280;36011;53.362;58.948;2023-02-28T16:51:39;95710.13;;;-3.04;61.56
49943;BME280;36011;53.362;58.948;2023-02-28T16:54:41;95702.00;;;-2.92;60.89
49943;BME280;36011;53.362;58.948;2023-02-28T16:57:49;95699.06;;;-2.80;61.00
49943;BME280;36011;53.362;58.948;2023-02-28T17:00:52;95694.91;;;-2.84;60.88
49943;BME280;36011;53.362;58.948;2023-02-28T17:03:56;95686.56;;;-2.92;61.42
49943;BME280;36011;53.362;58.948;2023-02-28T17:07:06;95679.03;;;-2.98;61.23
49943;BME280;36011;53.362;58.948;2023-02-28T17:13:18;95666.16;;;-2.98;61.35
49943;BME280;36011;53.362;58.948;2023-02-28T17:19:25;95664.84;;;-2.83;61.03
49943;BME280;36011;53.362;58.948;2023-02-28T17:22:26;95650.41;;;-2.87;60.98
49943;BME280;36011;53.362;58.948;2023-02-28T17:25:28;95649.66;;;-2.91;61.37
49943;BME280;36011;53.362;58.948;2023-02-28T17:28:32;95637.16;;;-3.03;61.68
49943;BME280;36011;53.362;58.948;2023-02-28T17:31:35;95646.44;;;-3.26;62.48
49943;BME280;36011;53.362;58.948;2023-02-28T17:34:44;95623.66;;;-3.38;62.83
49943;BME280;36011;53.362;58.948;2023-02-28T17:37:49;95628.50;;;-3.27;62.97
49943;BME280;36011;53.362;58.948;2023-02-28T17:40:52;95629.59;;;-3.08;62.39
49943;BME280;36011;53.362;58.948;2023-02-28T17:44:02;95623.88;;;-3.18;62.88
49943;BME280;36011;53.362;58.948;2023-02-28T17:47:06;95625.00;;;-3.26;63.23
49943;BME280;36011;53.362;58.948;2023-02-28T17:50:15;95612.72;;;-3.17;63.29
49943;BME280;36011;53.362;58.948;2023-02-28T17:53:16;95623.16;;;-3.21;63.36
49943;BME280;36011;53.362;58.948;2023-02-28T17:56:24;95626.69;;;-2.97;62.66
49943;BME280;36011;53.362;58.948;2023-02-28T17:59:28;95604.41;;;-2.98;62.73
49943;BME280;36011;53.362;58.948;2023-02-28T18:02:37;95603.97;;;-3.11;63.02
49943;BME280;36011;53.362;58.948;2023-02-28T18:05:43;95585.06;;;-3.10;62.97
49943;BME280;36011;53.362;58.948;2023-02-28T18:08:44;95592.53;;;-3.02;63.43
49943;BME280;36011;53.362;58.948;2023-02-28T18:11:53;95597.88;;;-3.08;63.49
49943;BME280;36011;53.362;58.948;2023-02-28T18:14:54;95596.25;;;-2.84;62.19
49943;BME280;36011;53.362;58.948;2023-02-28T18:17:57;95583.50;;;-2.89;62.55
49943;BME280;36011;53.362;58.948;2023-02-28T18:21:03;95589.81;;;-2.98;62.81
49943;BME280;36011;53.362;58.948;2023-02-28T18:24:08;95590.25;;;-2.85;62.25
49943;BME280;36011;53.362;58.948;2023-02-28T18:27:15;95589.94;;;-2.76;61.97
49943;BME280;36011;53.362;58.948;2023-02-28T18:30:23;95578.38;;;-2.89;61.94
49943;BME280;36011;53.362;58.948;2023-02-28T18:33:28;95562.25;;;-3.21;62.55
49943;BME280;36011;53.362;58.948;2023-02-28T18:36:31;95556.41;;;-3.26;62.90
49943;BME280;36011;53.362;58.948;2023-02-28T18:39:34;95545.69;;;-3.40;63.01
49943;BME280;36011;53.362;58.948;2023-02-28T18:42:36;95529.72;;;-3.50;63.23
49943;BME280;36011;53.362;58.948;2023-02-28T18:45:41;95531.84;;;-3.63;63.65
49943;BME280;36011;53.362;58.948;2023-02-28T18:48:43;95536.47;;;-3.74;63.85
49943;BME280;36011;53.362;58.948;2023-02-28T18:51:47;95534.88;;;-3.50;63.48
49943;BME280;36011;53.362;58.948;2023-02-28T18:54:51;95552.53;;;-3.12;62.13
49943;BME280;36011;53.362;58.948;2023-02-28T18:57:53;95533.66;;;-3.38;62.85